createdAt,value
2018-08-09T04:30:27.799Z,32.00
2018-08-09T04:32:55.922Z,29.47
2018-08-09T04:35:24.015Z,30.23
2018-08-09T04:37:52.149Z,22.43
2018-08-09T04:40:20.273Z,30.67
2018-08-09T04:42:48.372Z,23.13
2018-08-09T04:45:16.468Z,29.60
2018-08-09T04:47:44.587Z,25.10
2018-08-09T04:50:12.804Z,23.17
2018-08-09T04:52:40.906Z,26.23
2018-08-09T04:55:08.991Z,30.23
2018-08-09T04:57:37.068Z,33.17
2018-08-09T05:00:05.547Z,31.03
2018-08-09T05:02:33.656Z,30.43
2018-08-09T05:05:01.795Z,28.70
2018-08-09T05:07:29.984Z,39.77
2018-08-09T05:10:02.399Z,36.90
2018-08-09T05:12:30.529Z,28.43
2018-08-09T05:14:58.636Z,35.03
2018-08-09T05:17:26.772Z,36.33
2018-08-09T05:19:54.886Z,37.10
2018-08-09T05:22:22.967Z,38.23
2018-08-09T05:24:51.082Z,29.93
2018-08-09T05:27:19.179Z,52.63
2018-08-09T05:29:47.298Z,31.10
2018-08-09T05:32:15.419Z,31.30
2018-08-09T05:34:43.495Z,30.43
2018-08-09T05:37:11.659Z,28.23
2018-08-09T05:39:39.740Z,25.60
2018-08-09T05:42:07.860Z,30.37
2018-08-09T05:44:35.980Z,27.10
2018-08-09T05:47:04.080Z,26.90
2018-08-09T05:49:32.312Z,31.33
2018-08-09T05:52:00.533Z,21.03
2018-08-09T05:54:28.700Z,26.07
2018-08-09T05:56:56.779Z,22.47
2018-08-09T05:59:24.891Z,32.43
2018-08-09T06:01:52.972Z,36.20
2018-08-09T06:04:21.059Z,22.27
2018-08-09T06:06:49.172Z,21.33
2018-08-09T06:09:17.316Z,20.77
2018-08-09T06:11:45.435Z,22.07
2018-08-09T06:14:13.524Z,18.47
2018-08-09T06:16:41.682Z,16.40
2018-08-09T06:19:09.759Z,19.67
2018-08-09T06:21:37.861Z,23.37
2018-08-09T06:24:05.935Z,21.50
2018-08-09T06:26:34.072Z,16.23
2018-08-09T06:29:02.172Z,18.00
2018-08-09T06:31:30.277Z,23.50
2018-08-09T06:33:58.405Z,16.83
2018-08-09T06:36:26.521Z,15.40
2018-08-09T06:38:54.652Z,14.40
2018-08-09T06:41:22.780Z,18.10
2018-08-09T06:43:50.924Z,13.00
2018-08-09T15:02:53.724Z,5.77
2018-08-09T15:05:21.830Z,6.80
2018-08-09T15:07:49.939Z,9.10
2018-08-09T15:10:18.583Z,5.40
2018-08-09T15:12:46.922Z,10.63
2018-08-09T15:15:14.985Z,9.60
2018-08-09T15:17:43.122Z,22.03
2018-08-09T15:20:12.797Z,9.47
2018-08-09T15:22:40.955Z,10.43
2018-08-09T15:25:09.856Z,11.57
2018-08-09T15:27:38.029Z,8.23
2018-08-09T15:30:16.382Z,9.13
2018-08-09T15:32:44.480Z,8.03
2018-08-09T15:35:12.669Z,13.27
2018-08-09T15:37:40.784Z,8.27
2018-08-09T15:40:10.049Z,12.67
2018-08-09T15:42:38.496Z,14.63
2018-08-09T15:45:08.376Z,13.53
2018-08-09T15:50:13.932Z,14.67
2018-08-09T15:52:42.676Z,7.77
2018-08-09T15:55:10.928Z,5.20
2018-08-09T15:57:39.059Z,7.60
2018-08-09T16:00:10.800Z,6.63
2018-08-09T16:02:38.978Z,6.23
2018-08-09T16:05:07.458Z,13.90
2018-08-09T16:07:35.541Z,5.80
2018-08-09T16:10:04.879Z,7.67
2018-08-09T16:12:32.925Z,5.83
2018-08-09T16:15:00.993Z,7.47
2018-08-09T16:17:29.079Z,10.37
2018-08-09T16:19:57.177Z,9.93
2018-08-09T16:22:25.252Z,6.40
2018-08-09T16:24:53.362Z,4.00
2018-08-09T16:27:21.469Z,5.40
2018-08-09T16:29:49.609Z,3.53
2018-08-09T16:32:17.632Z,5.93
2018-08-09T16:34:45.744Z,6.80
2018-08-09T16:37:13.840Z,9.87
2018-08-09T16:39:41.944Z,6.93
2018-08-09T16:42:10.025Z,4.03
2018-08-09T16:44:38.132Z,5.30
2018-08-09T16:47:06.224Z,3.70
2018-08-09T16:49:34.344Z,10.00
2018-08-09T16:52:02.415Z,5.83
2018-08-09T16:54:30.518Z,4.03
2018-08-09T16:56:58.616Z,8.23
2018-08-09T16:59:26.711Z,5.50
2018-08-09T17:01:54.860Z,5.90
2018-08-09T17:04:22.944Z,5.77
2018-08-09T17:06:51.047Z,4.83
2018-08-09T17:09:19.120Z,6.63
2018-08-09T17:11:47.233Z,6.73
2018-08-09T17:14:16.091Z,10.73
2018-08-09T17:16:44.869Z,7.00
2018-08-09T17:19:12.946Z,9.57
2018-08-09T17:21:41.036Z,10.77
2018-08-09T17:24:10.311Z,2.53
2018-08-09T17:26:38.645Z,6.23
2018-08-09T17:29:07.908Z,5.70
2018-08-09T17:31:36.004Z,3.77
2018-08-09T17:34:04.131Z,7.33
2018-08-09T17:36:32.345Z,4.20
2018-08-09T17:39:00.672Z,3.13
2018-08-09T17:41:28.778Z,9.10
2018-08-09T17:43:56.872Z,7.27
2018-08-09T17:46:24.993Z,5.50
2018-08-09T17:48:53.074Z,7.33
2018-08-09T17:51:21.177Z,7.73
2018-08-09T17:53:49.243Z,10.00
2018-08-09T17:56:17.354Z,4.80
2018-08-09T17:58:45.449Z,5.53
2018-08-09T18:01:13.552Z,10.00
2018-08-09T18:03:41.649Z,4.83
2018-08-09T18:06:09.777Z,11.43
2018-08-09T18:08:37.840Z,6.53
2018-08-09T18:11:05.929Z,4.67
2018-08-09T18:13:34.033Z,3.00
2018-08-09T18:16:02.164Z,6.10
2018-08-09T18:18:30.241Z,3.73
2018-08-09T18:20:58.332Z,7.70
2018-08-09T18:23:26.444Z,11.63
2018-08-09T18:25:54.532Z,6.53
2018-08-09T18:28:22.615Z,3.67
2018-08-09T18:30:50.717Z,10.30
2018-08-09T18:33:18.796Z,5.57
2018-08-09T18:35:46.920Z,2.60
2018-08-09T18:38:14.995Z,2.90
2018-08-09T18:40:43.083Z,3.20
2018-08-09T18:43:11.259Z,7.40
2018-08-09T18:45:39.352Z,7.27
2018-08-09T18:48:07.482Z,5.30
2018-08-09T18:50:35.568Z,9.67
2018-08-09T18:53:03.849Z,15.43
2018-08-09T18:55:31.958Z,3.40
2018-08-09T18:58:00.080Z,5.57
2018-08-09T19:00:29.432Z,3.20
2018-08-09T19:02:57.834Z,6.10
2018-08-09T19:05:26.367Z,3.77
2018-08-09T19:07:54.521Z,3.43
2018-08-09T19:10:25.948Z,5.60
2018-08-09T19:12:54.028Z,4.37
2018-08-09T19:15:22.128Z,6.50
2018-08-09T19:17:50.440Z,5.57
2018-08-09T19:20:21.360Z,3.00
2018-08-09T19:22:49.732Z,5.73
2018-08-09T19:25:17.844Z,4.80
2018-08-09T19:27:45.916Z,4.57
2018-08-09T19:30:15.524Z,7.47
2018-08-09T19:32:43.668Z,7.40
2018-08-09T19:35:13.355Z,5.60
2018-08-09T19:37:41.832Z,7.00
2018-08-09T19:40:11.682Z,3.60
2018-08-09T19:42:40.069Z,7.70
2018-08-09T19:45:11.716Z,7.37
2018-08-09T19:47:40.086Z,3.10
2018-08-09T19:50:09.933Z,3.70
2018-08-09T19:52:38.298Z,5.05
2018-08-09T19:55:09.013Z,9.70
2018-08-09T19:57:37.569Z,4.37
2018-08-09T20:00:34.129Z,13.33
2018-08-09T20:03:02.218Z,5.97
2018-08-09T20:05:30.407Z,9.00
2018-08-09T20:07:58.524Z,7.90
2018-08-09T20:10:26.620Z,5.00
2018-08-09T20:12:54.715Z,5.80
2018-08-09T20:15:23.584Z,9.20
2018-08-09T20:17:51.725Z,3.83
2018-08-09T20:20:21.299Z,8.53
2018-08-09T20:22:49.409Z,3.30
2018-08-09T20:25:17.490Z,6.40
2018-08-09T20:27:46.203Z,4.23
2018-08-09T20:30:15.892Z,10.93
2018-08-09T20:32:44.600Z,5.03
2018-08-09T20:35:15.936Z,7.00
2018-08-09T20:37:45.076Z,4.37
2018-08-09T20:40:13.551Z,5.17
2018-08-09T20:42:41.844Z,8.10
2018-08-09T20:45:11.485Z,3.43
2018-08-09T20:47:39.572Z,3.30
2018-08-09T20:50:13.071Z,11.13
2018-08-09T20:52:42.023Z,5.73
2018-08-09T20:55:10.433Z,2.57
2018-08-09T20:57:39.360Z,5.30
2018-08-09T21:00:17.397Z,7.13
2018-08-09T21:02:46.594Z,6.90
2018-08-09T21:05:17.392Z,5.73
2018-08-09T21:07:45.500Z,2.67
2018-08-09T21:10:13.860Z,6.00
2018-08-09T21:12:41.956Z,5.90
2018-08-09T21:15:10.123Z,7.80
2018-08-09T21:17:38.193Z,2.87
2018-08-09T21:20:06.348Z,2.37
2018-08-09T21:22:34.439Z,4.70
2018-08-09T21:25:02.565Z,8.87
2018-08-09T21:27:30.617Z,9.27
2018-08-09T21:29:58.716Z,3.50
2018-08-09T21:32:26.876Z,3.60
2018-08-09T21:34:54.933Z,5.47
2018-08-09T21:37:23.012Z,2.93
2018-08-09T21:39:51.142Z,3.13
2018-08-09T21:42:19.217Z,2.73
2018-08-09T21:44:47.304Z,3.83
2018-08-09T21:47:15.525Z,3.10
2018-08-09T21:49:43.747Z,4.23
2018-08-09T21:52:11.805Z,4.63
2018-08-09T21:54:40.443Z,2.27
2018-08-09T21:57:08.512Z,4.53
2018-08-09T21:59:36.649Z,2.60
2018-08-09T22:02:04.773Z,3.93
2018-08-09T22:04:35.948Z,4.80
2018-08-09T22:07:09.604Z,4.33
2018-08-09T22:09:43.159Z,3.67
2018-08-09T22:12:16.676Z,3.40
2018-08-09T22:14:50.044Z,3.43
2018-08-09T22:17:23.583Z,3.87
2018-08-09T22:20:59.942Z,9.03
2018-08-09T22:23:28.055Z,4.23
2018-08-09T22:25:56.143Z,3.90
2018-08-09T22:28:24.263Z,3.10
2018-08-09T22:30:52.371Z,2.73
2018-08-09T22:33:20.471Z,1.90
2018-08-09T22:35:48.573Z,3.13
2018-08-09T22:38:16.684Z,5.80
2018-08-09T22:40:44.779Z,4.27
2018-08-09T22:43:12.860Z,1.70
